Dallas, Texas
Traffic Map
Current Weather Conditions
Dallas, Texas
Overcast Thunderstorm
Overcast
68°
Feels Like: 68°
Wind Chill: 68° Ceiling: 11000
Heat Index: 68° Visibility: 4mi
Dew Point: 65° Wind: 7mph
Humidity: 90% Direction: 310° (NW)
Pressure: 30.08in Gusts: 0mph
Raw Report DataKDAL 301237Z 31006KT 4SM -TSRA BR FEW008 FEW017CB OVC110 20/18 A3008 RMK AO2 OCNL LTGICCCCG TS ALQDS MOV E P0015 T02000183
Traffic Incident Summary
Active as of:
Severity:
Category:
InformationThere was an issue retrieving the traffic information for this location. Please try a different location or try again shortly.
Advertisements
Track Severe Weather on mobile